Time;durP1;ratioP1;P1;durP2;ratioP2;P2;SDS_P1;SDS_P2;PMS_P1;PMS_P2;Temp;Humidity;BMP_temperature;BMP_pressure;BME280_temperature;BME280_humidity;BME280_pressure;Samples;Min_cycle;Max_cycle;Signal;HPM_P1;HPM_P2
2021/08/11 00:01:08;;;;;;;;;1.50;1.00;;;;;21.09;66.12;101569.34;5070995;27;45549;-74
2021/08/11 00:03:33;;;;;;;;;2.75;2.00;;;;;21.09;66.40;101575.53;5075165;27;46868;-72
2021/08/11 00:05:58;;;;;;;;;4.00;2.00;;;;;21.04;66.06;101578.00;5078374;27;45511;-72
2021/08/11 00:08:24;;;;;;;;;3.00;3.00;;;;;21.03;66.42;101577.19;5078924;27;45462;-71
2021/08/11 00:10:49;;;;;;;;;3.00;3.00;;;;;21.00;66.57;101572.22;5057164;27;45508;-74
2021/08/11 00:13:15;;;;;;;;;2.75;2.00;;;;;20.97;66.54;101566.41;5049551;28;46021;-70
2021/08/11 00:15:40;;;;;;;;;1.75;1.50;;;;;20.92;66.01;101566.16;5047265;28;45482;-74
2021/08/11 00:18:05;;;;;;;;;2.50;2.50;;;;;20.89;66.45;101571.94;5048290;28;45406;-71
2021/08/11 00:20:31;;;;;;;;;2.00;2.00;;;;;20.85;66.94;101582.25;5051873;28;45453;-72
2021/08/11 00:22:56;;;;;;;;;4.50;3.75;;;;;20.80;66.32;101580.16;5061315;28;46548;-71
2021/08/11 00:25:21;;;;;;;;;2.00;2.00;;;;;20.77;66.79;101580.53;5050198;28;45444;-73
2021/08/11 00:27:47;;;;;;;;;2.75;2.75;;;;;20.76;66.89;101578.88;5032207;28;45347;-74
2021/08/11 00:30:13;;;;;;;;;5.00;3.00;;;;;20.75;66.85;101581.78;5055099;28;45461;-73
2021/08/11 00:32:38;;;;;;;;;2.25;2.25;;;;;20.71;67.38;101581.31;5057239;28;46329;-71
2021/08/11 00:35:05;;;;;;;;;3.75;3.00;;;;;20.69;67.17;101588.72;5059179;28;45447;-72
2021/08/11 00:37:30;;;;;;;;;4.25;2.25;;;;;20.68;67.45;101588.94;5055791;28;45632;-71
2021/08/11 00:39:58;;;;;;;;;2.75;2.00;;;;;20.67;67.20;101590.78;5050598;28;45694;-71
2021/08/11 00:42:25;;;;;;;;;3.50;2.50;;;;;20.68;67.66;101588.94;5058313;28;45547;-74
2021/08/11 00:44:50;;;;;;;;;5.00;3.50;;;;;20.70;67.79;101595.78;5052932;28;45393;-71
2021/08/11 00:47:16;;;;;;;;;3.75;2.75;;;;;20.71;67.97;101596.59;5049927;28;45569;-71
2021/08/11 00:49:42;;;;;;;;;3.50;3.50;;;;;20.72;68.36;101598.25;5051952;28;45448;-74
2021/08/11 00:52:08;;;;;;;;;4.25;3.25;;;;;20.71;67.54;101600.13;5055892;28;45528;-74
2021/08/11 00:54:35;;;;;;;;;5.25;4.00;;;;;20.72;67.95;101604.47;5037261;28;45699;-69
2021/08/11 00:57:04;;;;;;;;;2.75;2.50;;;;;20.72;67.63;101609.84;5053489;28;45618;-74
2021/08/11 00:59:32;;;;;;;;;5.00;3.00;;;;;20.72;67.90;101600.94;5056920;28;45583;-74
2021/08/11 01:01:57;;;;;;;;;4.00;3.00;;;;;20.72;68.28;101606.31;5054272;28;47463;-72
2021/08/11 01:04:24;;;;;;;;;4.75;3.75;;;;;20.71;68.50;101601.97;5048969;28;45422;-73
2021/08/11 01:06:49;;;;;;;;;3.25;3.00;;;;;20.69;68.40;101610.22;5040372;28;45687;-74
2021/08/11 01:09:15;;;;;;;;;3.00;2.75;;;;;20.69;68.96;101615.59;5030528;28;45423;-71
2021/08/11 01:11:45;;;;;;;;;2.75;2.75;;;;;20.67;69.41;101616.81;5076357;27;45559;-69
2021/08/11 01:14:13;;;;;;;;;4.50;4.00;;;;;20.65;69.63;101611.66;5062737;27;45831;-75
2021/08/11 01:16:39;;;;;;;;;3.00;3.00;;;;;20.64;69.72;101606.47;5069221;27;45674;-74
2021/08/11 01:19:04;;;;;;;;;3.75;3.75;;;;;20.63;69.29;101613.69;5072565;27;45458;-74
2021/08/11 01:21:35;;;;;;;;;4.00;4.00;;;;;20.61;69.26;101602.31;5069814;27;46392;-74
2021/08/11 01:24:15;;;;;;;;;2.50;2.50;;;;;20.56;69.36;101597.53;5079552;27;45991;-74
2021/08/11 01:27:06;;;;;;;;;3.00;3.00;;;;;20.52;69.67;101598.91;5070775;27;45482;-72
2021/08/11 01:30:12;;;;;;;;;3.00;3.00;;;;;20.45;69.42;101605.25;5068904;27;45598;-74
2021/08/11 01:32:52;;;;;;;;;4.00;3.50;;;;;20.38;69.52;101597.16;4988098;28;45532;-74
2021/08/11 01:35:19;;;;;;;;;4.50;3.00;;;;;20.32;69.64;101596.03;4984654;28;45434;-74
2021/08/11 01:37:49;;;;;;;;;4.25;4.00;;;;;20.28;69.74;101592.09;4986721;28;45523;-69
2021/08/11 01:40:21;;;;;;;;;4.50;3.50;;;;;20.23;69.91;101583.81;4987074;28;45708;-72
2021/08/11 01:42:50;;;;;;;;;3.00;3.00;;;;;20.19;70.37;101593.25;4994195;28;45500;-70
2021/08/11 01:45:21;;;;;;;;;4.00;4.00;;;;;20.13;69.71;101584.13;4989185;28;45635;-71
2021/08/11 01:47:54;;;;;;;;;5.25;4.25;;;;;20.10;70.37;101584.50;4982919;28;45789;-69
2021/08/11 01:50:21;;;;;;;;;3.00;2.50;;;;;20.07;70.23;101581.38;4988570;28;45504;-73
2021/08/11 01:52:49;;;;;;;;;3.75;3.00;;;;;20.02;70.40;101581.13;4986692;28;46270;-74
2021/08/11 01:55:14;;;;;;;;;3.25;3.00;;;;;19.96;70.42;101572.81;4985652;28;45434;-74
2021/08/11 01:57:44;;;;;;;;;2.50;2.25;;;;;19.94;71.16;101571.34;4985839;28;45473;-74
2021/08/11 02:00:11;;;;;;;;;4.00;2.75;;;;;19.91;71.54;101569.03;4986512;28;45551;-71
2021/08/11 02:02:38;;;;;;;;;4.00;4.00;;;;;19.86;71.64;101572.28;4969882;28;47258;-75
2021/08/11 02:05:05;;;;;;;;;4.25;3.00;;;;;19.82;70.75;101570.19;4989427;28;45536;-72
2021/08/11 02:07:32;;;;;;;;;3.50;3.50;;;;;19.75;71.32;101568.25;4987688;28;45808;-74
2021/08/11 02:09:58;;;;;;;;;4.25;3.50;;;;;19.73;71.80;101572.13;5039913;27;45533;-71
2021/08/11 02:12:23;;;;;;;;;3.00;3.00;;;;;19.69;71.31;101576.22;5070390;27;46938;-71
2021/08/11 02:14:49;;;;;;;;;4.25;4.25;;;;;19.63;71.90;101564.34;5052099;27;45826;-72
2021/08/11 02:17:15;;;;;;;;;4.50;3.00;;;;;19.61;71.56;101568.25;5048946;28;45447;-74
2021/08/11 02:19:40;;;;;;;;;3.50;3.50;;;;;19.56;72.16;101566.16;5076721;27;45467;-72
2021/08/11 02:22:06;;;;;;;;;2.00;2.00;;;;;19.53;72.43;101566.50;5072220;27;46613;-72
2021/08/11 02:24:31;;;;;;;;;3.00;3.00;;;;;19.50;72.08;101562.38;5075385;27;45609;-69
2021/08/11 02:27:09;;;;;;;;;3.75;3.00;;;;;19.48;72.51;101572.44;5081617;27;45579;-69
2021/08/11 02:30:09;;;;;;;;;3.75;3.75;;;;;19.45;73.19;101558.59;5069337;27;45793;-71
2021/08/11 02:32:40;;;;;;;;;3.00;3.00;;;;;19.40;72.69;101563.69;5067550;27;45514;-74
2021/08/11 02:35:15;;;;;;;;;2.00;2.00;;;;;19.37;73.11;101569.44;5071914;27;45912;-72
2021/08/11 02:38:04;;;;;;;;;3.50;3.50;;;;;19.32;73.81;101564.63;5081846;27;45547;-72
2021/08/11 02:40:48;;;;;;;;;4.25;4.25;;;;;19.28;73.23;101571.38;5071895;27;45544;-71
2021/08/11 02:43:36;;;;;;;;;4.00;3.00;;;;;19.23;73.48;101568.41;5064534;27;45518;-71
2021/08/11 02:46:12;;;;;;;;;3.00;3.00;;;;;19.19;73.47;101559.06;5060208;27;45426;-69
2021/08/11 02:48:39;;;;;;;;;3.25;3.25;;;;;19.16;73.15;101559.44;5064163;27;45535;-74
2021/08/11 02:51:07;;;;;;;;;4.50;4.00;;;;;19.12;73.72;101570.56;5074302;27;45459;-75
2021/08/11 02:53:34;;;;;;;;;2.25;2.25;;;;;19.07;73.98;101567.59;5066004;27;45563;-73
2021/08/11 02:56:01;;;;;;;;;3.75;3.75;;;;;19.05;74.18;101564.28;5077112;27;45378;-72
2021/08/11 02:58:27;;;;;;;;;5.00;4.00;;;;;19.02;74.53;101563.81;5077673;27;45534;-74
2021/08/11 03:00:54;;;;;;;;;5.00;4.00;;;;;18.98;74.98;101565.19;5079715;27;45548;-71
2021/08/11 03:03:19;;;;;;;;;4.25;4.00;;;;;18.96;74.74;101568.03;5075449;27;45448;-70
2021/08/11 03:05:46;;;;;;;;;4.00;4.00;;;;;18.92;74.50;101566.78;5077016;27;45873;-71
2021/08/11 03:08:11;;;;;;;;;4.75;2.75;;;;;18.87;74.47;101571.84;5070329;27;45533;-69
2021/08/11 03:10:40;;;;;;;;;5.00;5.00;;;;;18.85;75.04;101568.53;5083007;27;45723;-74
2021/08/11 03:13:09;;;;;;;;;3.75;3.75;;;;;18.82;75.26;101571.56;5075833;27;46526;-72
2021/08/11 03:15:36;;;;;;;;;2.00;1.00;;;;;18.80;75.38;101577.09;5060407;28;46054;-73
2021/08/11 03:18:02;;;;;;;;;4.50;4.50;;;;;18.78;75.25;101563.06;5074206;27;45481;-73
2021/08/11 03:20:30;;;;;;;;;5.00;3.50;;;;;18.74;75.41;101561.72;5076931;27;45540;-73
2021/08/11 03:22:55;;;;;;;;;5.75;4.00;;;;;18.72;75.36;101562.91;5075323;27;45494;-72
2021/08/11 03:25:21;;;;;;;;;5.00;5.00;;;;;18.69;75.21;101572.16;5069909;27;45411;-71
2021/08/11 03:27:46;;;;;;;;;6.00;5.50;;;;;18.67;75.20;101566.16;5070305;27;45497;-73
2021/08/11 03:30:12;;;;;;;;;7.50;5.75;;;;;18.63;75.21;101568.34;5053611;27;45561;-74
2021/08/11 03:32:37;;;;;;;;;7.25;4.75;;;;;18.62;75.56;101572.06;5076218;27;45594;-74
2021/08/11 03:35:03;;;;;;;;;7.00;5.50;;;;;18.62;75.59;101573.88;5073789;27;45667;-75
2021/08/11 03:37:29;;;;;;;;;4.00;4.00;;;;;18.61;76.31;101578.41;5069622;27;45428;-73
2021/08/11 03:39:55;;;;;;;;;6.50;6.50;;;;;18.60;75.85;101575.94;5072100;27;45568;-74
2021/08/11 03:42:20;;;;;;;;;5.25;4.50;;;;;18.59;75.70;101575.09;5070881;27;45716;-71
2021/08/11 03:44:46;;;;;;;;;4.75;4.25;;;;;18.58;75.36;101575.28;5071508;27;45572;-73
2021/08/11 03:47:11;;;;;;;;;6.00;4.50;;;;;18.58;75.77;101581.47;5074030;27;45500;-74
2021/08/11 03:49:37;;;;;;;;;5.50;5.50;;;;;18.59;76.14;101577.75;5052439;28;45356;-72
2021/08/11 03:52:02;;;;;;;;;6.00;5.25;;;;;18.62;76.26;101585.44;5069732;27;46474;-71
2021/08/11 03:54:28;;;;;;;;;5.50;4.75;;;;;18.63;76.36;101587.09;5071207;27;45634;-75
2021/08/11 03:56:54;;;;;;;;;4.25;4.00;;;;;18.67;77.34;101585.75;5082240;27;45566;-71
2021/08/11 03:59:19;;;;;;;;;6.00;5.75;;;;;18.70;76.96;101590.72;5075881;27;45527;-74
2021/08/11 04:01:44;;;;;;;;;5.75;5.00;;;;;18.75;76.94;101592.03;5081032;27;46150;-69
2021/08/11 04:04:10;;;;;;;;;7.75;5.50;;;;;18.76;77.57;101589.19;5070150;27;45541;-69
2021/08/11 04:06:35;;;;;;;;;7.75;5.50;;;;;18.80;77.20;101586.97;5051559;28;45468;-75
2021/08/11 04:09:01;;;;;;;;;5.00;5.00;;;;;18.81;77.29;101586.78;5072841;27;47692;-73
2021/08/11 04:11:26;;;;;;;;;8.50;6.25;;;;;18.84;76.63;101590.94;5072822;27;45412;-71
2021/08/11 04:13:51;;;;;;;;;8.50;6.75;;;;;18.86;77.26;101597.78;5080386;27;45354;-71
2021/08/11 04:16:17;;;;;;;;;6.00;6.00;;;;;18.87;76.47;101599.47;5053963;27;45493;-74
2021/08/11 04:18:42;;;;;;;;;4.75;4.75;;;;;18.88;76.20;101601.09;5078621;27;45655;-72
2021/08/11 04:21:08;;;;;;;;;6.00;4.25;;;;;18.89;75.84;101607.28;5073328;27;45471;-75
2021/08/11 04:23:33;;;;;;;;;4.75;3.75;;;;;18.90;75.74;101600.94;5077101;27;45548;-71
2021/08/11 04:25:58;;;;;;;;;5.50;4.50;;;;;18.89;76.05;101596.56;5074095;27;45526;-74
2021/08/11 04:28:25;;;;;;;;;7.25;5.50;;;;;18.89;75.72;101593.91;5084473;27;45462;-73
2021/08/11 04:30:51;;;;;;;;;8.00;4.75;;;;;18.91;75.65;101605.25;5075921;27;45621;-73
2021/08/11 04:33:18;;;;;;;;;5.75;5.75;;;;;18.89;75.84;101599.25;5077268;27;45677;-72
2021/08/11 04:35:44;;;;;;;;;5.00;4.25;;;;;18.86;76.21;101602.31;5071111;27;45493;-69
2021/08/11 04:38:10;;;;;;;;;6.00;5.50;;;;;18.85;76.25;101606.00;5087585;27;45423;-74
2021/08/11 04:40:36;;;;;;;;;6.00;6.00;;;;;18.84;76.08;101615.03;5072974;27;45638;-72
2021/08/11 04:43:03;;;;;;;;;7.25;5.75;;;;;18.81;76.16;101618.91;5076775;27;45529;-74
2021/08/11 04:45:28;;;;;;;;;6.00;6.00;;;;;18.80;76.45;101621.78;5050939;28;45634;-75
2021/08/11 04:47:53;;;;;;;;;5.50;5.50;;;;;18.79;76.49;101617.44;5070125;27;45547;-76
2021/08/11 04:50:19;;;;;;;;;6.75;6.75;;;;;18.79;76.74;101612.94;5078069;27;46174;-74
2021/08/11 04:52:44;;;;;;;;;6.25;5.00;;;;;18.78;76.52;101610.44;5077143;27;45452;-71
2021/08/11 04:55:12;;;;;;;;;6.25;5.00;;;;;18.78;76.34;101615.78;5080507;27;45573;-75
2021/08/11 04:57:37;;;;;;;;;7.00;6.00;;;;;18.76;76.59;101604.41;5068466;27;45546;-75
2021/08/11 05:00:03;;;;;;;;;4.50;4.50;;;;;18.77;76.46;101608.75;5069922;27;46014;-73
2021/08/11 05:02:29;;;;;;;;;6.00;5.25;;;;;18.77;76.82;101609.59;5071573;27;45546;-74
2021/08/11 05:04:54;;;;;;;;;5.75;5.75;;;;;18.78;76.60;101613.09;5079033;27;45789;-75
2021/08/11 05:07:19;;;;;;;;;5.50;4.00;;;;;18.78;77.15;101616.63;5074434;27;45392;-74
2021/08/11 05:09:45;;;;;;;;;7.00;5.00;;;;;18.79;77.29;101614.75;5048022;28;47700;-74
2021/08/11 05:12:10;;;;;;;;;7.50;6.50;;;;;18.80;76.67;101621.78;5067280;27;48694;-71
2021/08/11 05:14:36;;;;;;;;;5.75;5.75;;;;;18.82;76.88;101622.47;5055977;27;45635;-69
2021/08/11 05:17:01;;;;;;;;;5.75;5.75;;;;;18.85;77.03;101627.44;5081847;27;45607;-72
2021/08/11 05:19:27;;;;;;;;;6.75;5.00;;;;;18.90;76.95;101633.91;5070348;27;46732;-69
2021/08/11 05:21:52;;;;;;;;;5.50;5.00;;;;;18.95;77.31;101636.03;5068930;27;45408;-74
2021/08/11 05:24:18;;;;;;;;;6.00;6.00;;;;;19.01;77.23;101637.97;5067840;27;45499;-69
2021/08/11 05:26:45;;;;;;;;;7.50;6.50;;;;;19.09;77.22;101640.59;5068178;27;45596;-72
2021/08/11 05:29:13;;;;;;;;;8.00;6.00;;;;;19.13;76.82;101638.34;5074176;27;46131;-72
2021/08/11 05:31:38;;;;;;;;;6.00;4.75;;;;;19.19;77.29;101639.47;5066996;27;45586;-72
2021/08/11 05:34:04;;;;;;;;;7.25;6.50;;;;;19.24;76.70;101637.09;5063963;27;45591;-69
2021/08/11 05:36:29;;;;;;;;;6.50;6.25;;;;;19.31;77.00;101640.66;5079802;27;45490;-69
2021/08/11 05:38:54;;;;;;;;;6.50;6.00;;;;;19.36;76.37;101643.63;5083382;27;45555;-71
2021/08/11 05:41:20;;;;;;;;;6.50;5.50;;;;;19.40;76.12;101644.09;5069031;27;45531;-68
2021/08/11 05:43:45;;;;;;;;;7.00;7.00;;;;;19.43;76.60;101641.88;5068991;27;45707;-75
2021/08/11 05:46:10;;;;;;;;;7.25;7.00;;;;;19.48;75.98;101650.19;5079157;27;45530;-75
2021/08/11 05:48:36;;;;;;;;;8.00;6.00;;;;;19.54;75.28;101644.09;5059819;28;49370;-75
2021/08/11 05:51:01;;;;;;;;;11.25;6.00;;;;;19.61;75.33;101649.53;5078165;27;45362;-74
2021/08/11 05:53:26;;;;;;;;;6.50;6.50;;;;;19.69;74.55;101640.59;5070777;27;45423;-73
2021/08/11 05:55:52;;;;;;;;;9.75;8.50;;;;;19.76;74.54;101642.34;5068258;27;45544;-69
2021/08/11 05:58:18;;;;;;;;;7.25;7.25;;;;;19.82;73.94;101650.66;5066438;27;45457;-71
2021/08/11 06:00:44;;;;;;;;;7.25;7.25;;;;;19.86;73.75;101652.75;5069069;27;45487;-75
2021/08/11 06:03:09;;;;;;;;;7.75;6.75;;;;;19.93;73.92;101647.44;5069126;27;47178;-74
2021/08/11 06:05:35;;;;;;;;;9.50;7.75;;;;;20.01;73.66;101654.59;5081278;27;45458;-72
2021/08/11 06:08:01;;;;;;;;;7.00;7.00;;;;;20.09;73.99;101659.81;5077832;27;45665;-74
2021/08/11 06:10:27;;;;;;;;;6.00;6.00;;;;;20.16;73.60;101660.72;5069884;27;45646;-71
2021/08/11 06:12:53;;;;;;;;;7.25;5.50;;;;;20.24;73.11;101657.91;5078904;27;45500;-74
2021/08/11 06:15:19;;;;;;;;;7.00;5.00;;;;;20.34;72.94;101662.97;5074919;27;45630;-74
2021/08/11 06:17:49;;;;;;;;;7.00;7.00;;;;;20.44;72.66;101670.72;5076601;27;46460;-71
2021/08/11 06:20:17;;;;;;;;;8.50;6.25;;;;;20.51;72.43;101668.91;5074797;27;46117;-74
2021/08/11 06:22:43;;;;;;;;;6.50;5.50;;;;;20.57;72.32;101666.34;5067510;27;45492;-75
2021/08/11 06:25:11;;;;;;;;;6.00;5.50;;;;;20.67;72.10;101663.28;5078417;27;45585;-74
2021/08/11 06:27:36;;;;;;;;;8.00;6.00;;;;;20.77;71.60;101661.13;5070221;27;46341;-71
2021/08/11 06:30:03;;;;;;;;;8.50;7.00;;;;;20.86;71.82;101666.34;5072911;27;45439;-71
2021/08/11 06:32:28;;;;;;;;;7.00;6.25;;;;;20.97;71.13;101673.91;5054432;27;45513;-75
2021/08/11 06:34:54;;;;;;;;;6.25;5.00;;;;;21.07;70.88;101671.69;5067131;27;45518;-76
2021/08/11 06:37:19;;;;;;;;;11.00;7.00;;;;;21.18;70.23;101673.81;5067958;27;45689;-72
2021/08/11 06:39:44;;;;;;;;;9.75;8.25;;;;;21.29;69.47;101671.59;5064780;27;45542;-71
2021/08/11 06:42:10;;;;;;;;;6.75;6.50;;;;;21.40;69.30;101671.09;5052636;27;45518;-75
2021/08/11 06:44:36;;;;;;;;;8.50;7.00;;;;;21.48;69.12;101663.69;5077788;27;45583;-75
2021/08/11 06:47:01;;;;;;;;;8.25;8.25;;;;;21.61;68.87;101672.84;5079874;27;46604;-75
2021/08/11 06:49:27;;;;;;;;;10.25;8.00;;;;;21.72;68.37;101674.97;5068883;27;45525;-72
2021/08/11 06:51:52;;;;;;;;;6.25;6.25;;;;;21.83;68.33;101669.00;5072910;27;45645;-74
2021/08/11 06:54:18;;;;;;;;;8.75;8.00;;;;;21.98;67.90;101668.03;5080556;27;45616;-71
2021/08/11 06:56:43;;;;;;;;;10.75;8.25;;;;;22.04;67.44;101672.59;5077091;27;45558;-74
2021/08/11 06:59:09;;;;;;;;;8.00;7.00;;;;;22.07;67.27;101667.63;5079558;27;45566;-74
2021/08/11 07:01:34;;;;;;;;;9.00;7.25;;;;;22.17;67.88;101669.13;5074068;27;45604;-75
2021/08/11 07:03:59;;;;;;;;;6.50;5.75;;;;;22.29;67.80;101664.81;5066629;27;45428;-75
2021/08/11 07:06:25;;;;;;;;;6.00;5.00;;;;;22.44;66.52;101667.34;5066733;27;46545;-74
2021/08/11 07:08:50;;;;;;;;;6.00;6.00;;;;;22.58;65.35;101678.97;5068004;27;45920;-71
2021/08/11 07:11:16;;;;;;;;;5.25;5.25;;;;;22.66;64.40;101668.78;5069537;27;45533;-72
2021/08/11 07:13:41;;;;;;;;;6.25;6.25;;;;;22.69;64.90;101667.56;5073173;27;45388;-73
2021/08/11 07:16:07;;;;;;;;;6.25;6.25;;;;;22.75;64.95;101664.03;5074202;27;46363;-75
2021/08/11 07:18:33;;;;;;;;;8.75;6.25;;;;;22.81;64.57;101671.28;5072977;27;45511;-74
2021/08/11 07:20:58;;;;;;;;;6.25;6.25;;;;;22.81;63.95;101668.59;5049318;28;45458;-70
2021/08/11 07:23:24;;;;;;;;;8.00;6.00;;;;;22.86;63.55;101676.06;5078553;27;45678;-74
2021/08/11 07:25:50;;;;;;;;;5.50;5.00;;;;;22.89;63.22;101672.94;5076782;27;46162;-74
2021/08/11 07:28:15;;;;;;;;;6.75;6.75;;;;;22.91;64.08;101671.69;5068690;27;45427;-75
2021/08/11 07:30:43;;;;;;;;;8.00;7.00;;;;;23.11;63.97;101678.97;5070044;27;45529;-74
2021/08/11 07:33:09;;;;;;;;;4.00;4.00;;;;;23.32;63.40;101680.59;5068604;27;46084;-74
2021/08/11 07:35:38;;;;;;;;;4.50;4.50;;;;;23.50;62.08;101688.81;5068583;27;46107;-69
2021/08/11 07:38:04;;;;;;;;;5.50;4.25;;;;;23.94;60.86;101692.66;5072683;27;45546;-74
2021/08/11 07:40:31;;;;;;;;;5.00;5.00;;;;;25.39;57.53;101689.06;5064154;27;45437;-72
2021/08/11 07:42:58;;;;;;;;;6.00;5.75;;;;;26.75;55.45;101688.69;5065276;27;45717;-69
2021/08/11 07:45:26;;;;;;;;;5.50;5.00;;;;;29.35;51.35;101687.44;5070597;27;46180;-72
2021/08/11 07:47:54;;;;;;;;;4.00;4.00;;;;;31.84;47.91;101686.19;5068719;27;45649;-73
2021/08/11 07:50:21;;;;;;;;;5.00;5.00;;;;;32.72;44.60;101698.09;5069809;27;45572;-75
2021/08/11 07:52:46;;;;;;;;;5.00;4.25;;;;;34.38;43.72;101693.28;5069635;27;45753;-74
2021/08/11 07:55:13;;;;;;;;;4.00;4.00;;;;;34.96;40.27;101697.97;5067836;27;45535;-72
2021/08/11 07:57:39;;;;;;;;;3.75;3.75;;;;;34.33;40.36;101690.59;5052400;27;46297;-75
2021/08/11 08:00:07;;;;;;;;;5.50;4.00;;;;;33.80;41.19;101693.13;5071038;27;45530;-75
2021/08/11 08:02:32;;;;;;;;;6.00;4.75;;;;;33.47;40.34;101689.97;5071184;27;45470;-74
2021/08/11 08:04:57;;;;;;;;;6.00;4.00;;;;;34.01;40.25;101682.84;5078977;27;46241;-72
2021/08/11 08:07:23;;;;;;;;;4.75;4.00;;;;;35.82;39.32;101689.00;5071455;27;45577;-72
2021/08/11 08:09:48;;;;;;;;;4.75;4.75;;;;;37.78;36.25;101680.47;5074379;27;45537;-73
2021/08/11 08:12:13;;;;;;;;;4.25;3.50;;;;;39.47;33.48;101683.56;5081391;27;45413;-72
2021/08/11 08:14:39;;;;;;;;;3.50;3.50;;;;;40.84;32.30;101680.97;5077390;27;45713;-75
2021/08/11 08:17:04;;;;;;;;;3.50;2.00;;;;;42.17;30.51;101690.88;5078914;27;45429;-72
2021/08/11 08:19:30;;;;;;;;;2.00;2.00;;;;;43.18;28.92;101684.78;5053442;28;45711;-75
2021/08/11 08:21:55;;;;;;;;;2.75;2.50;;;;;44.04;23.52;101680.97;5061987;27;45643;-72
2021/08/11 08:24:22;;;;;;;;;2.50;2.50;;;;;44.60;26.88;101680.88;5079732;27;46517;-73
2021/08/11 08:26:47;;;;;;;;;5.25;3.00;;;;;45.40;26.13;101674.03;5069398;27;45545;-76
2021/08/11 08:29:13;;;;;;;;;2.75;2.75;;;;;46.13;24.74;101679.94;5073686;27;45682;-73
2021/08/11 08:31:39;;;;;;;;;3.50;2.00;;;;;46.39;24.44;101678.41;5079986;27;45465;-72
2021/08/11 08:34:04;;;;;;;;;3.00;2.25;;;;;46.68;23.81;101680.47;5059795;27;47070;-73
2021/08/11 08:36:30;;;;;;;;;3.00;3.00;;;;;47.16;22.73;101686.47;5078552;27;45443;-76
2021/08/11 08:38:56;;;;;;;;;2.50;2.50;;;;;47.32;20.96;101679.88;5077760;27;45765;-75
2021/08/11 08:41:21;;;;;;;;;2.25;2.25;;;;;47.16;21.84;101682.84;5071462;27;45503;-73
2021/08/11 08:43:47;;;;;;;;;3.50;2.00;;;;;47.31;21.95;101683.84;5047572;27;48191;-70
2021/08/11 08:46:15;;;;;;;;;2.00;2.00;;;;;47.83;22.02;101682.16;5067047;27;45620;-73
2021/08/11 08:48:41;;;;;;;;;2.00;2.00;;;;;48.41;21.26;101684.31;5069440;27;45506;-68
2021/08/11 08:51:11;;;;;;;;;2.50;2.25;;;;;48.75;20.65;101681.41;5056378;28;45604;-71
2021/08/11 08:53:38;;;;;;;;;3.00;3.00;;;;;48.64;17.45;101675.75;5053175;27;47165;-72
2021/08/11 08:56:05;;;;;;;;;3.00;3.00;;;;;47.83;18.64;101676.56;5076987;27;45428;-77
2021/08/11 08:58:31;;;;;;;;;2.50;2.50;;;;;47.07;20.76;101674.72;5067802;27;45813;-68
2021/08/11 09:00:56;;;;;;;;;2.25;2.25;;;;;46.05;21.26;101686.56;5069444;27;45437;-74
2021/08/11 09:03:21;;;;;;;;;5.75;5.50;;;;;44.89;21.15;101684.41;5066130;27;45759;-74
2021/08/11 09:05:47;;;;;;;;;3.00;3.00;;;;;43.56;22.41;101670.44;5069036;27;45472;-73
2021/08/11 09:08:12;;;;;;;;;3.00;3.00;;;;;42.23;24.24;101679.19;5077186;27;45621;-70
2021/08/11 09:10:39;;;;;;;;;2.25;2.25;;;;;41.09;24.80;101678.41;5072859;27;45385;-75
2021/08/11 09:13:13;;;;;;;;;2.75;2.75;;;;;39.95;24.16;101680.66;5067532;27;48126;-71
2021/08/11 09:15:46;;;;;;;;;4.75;4.75;;;;;38.77;25.21;101663.16;5074102;27;45533;-74
2021/08/11 09:18:19;;;;;;;;;3.00;3.00;;;;;38.15;28.01;101670.25;5063176;27;45465;-74
2021/08/11 09:20:46;;;;;;;;;3.00;3.00;;;;;37.89;27.26;101667.28;5068943;27;45658;-74
2021/08/11 09:23:15;;;;;;;;;2.75;2.75;;;;;37.41;28.17;101671.34;5071146;27;45510;-74
2021/08/11 09:26:00;;;;;;;;;2.00;2.00;;;;;37.01;27.35;101662.78;5075470;27;45556;-71
2021/08/11 09:28:28;;;;;;;;;4.00;2.50;;;;;36.76;28.19;101666.03;5064205;27;45574;-74
2021/08/11 09:30:53;;;;;;;;;3.00;3.00;;;;;36.41;28.88;101654.53;5068205;27;45532;-73
2021/08/11 09:33:26;;;;;;;;;4.75;2.00;;;;;36.23;30.26;101661.72;5078076;27;45574;-73
2021/08/11 09:35:53;;;;;;;;;3.00;3.00;;;;;36.03;26.85;101653.75;5070058;27;45526;-68
2021/08/11 09:38:19;;;;;;;;;2.00;2.00;;;;;35.30;30.20;101655.88;5068033;27;45577;-71
2021/08/11 09:40:46;;;;;;;;;3.25;2.25;;;;;34.86;31.20;101663.22;5071630;27;45430;-68
2021/08/11 09:43:17;;;;;;;;;3.50;3.00;;;;;35.05;32.96;101660.53;5046882;27;48004;-71
2021/08/11 09:45:49;;;;;;;;;2.75;2.75;;;;;35.60;32.41;101659.38;5056468;28;45938;-74
2021/08/11 09:48:20;;;;;;;;;5.00;2.00;;;;;36.05;31.71;101655.09;5070815;27;45591;-74
2021/08/11 09:50:46;;;;;;;;;2.50;1.75;;;;;36.43;31.50;101657.00;5057627;27;45592;-73
2021/08/11 09:53:14;;;;;;;;;2.75;2.75;;;;;36.42;31.34;101658.09;5078886;27;46048;-71
2021/08/11 09:56:05;;;;;;;;;3.00;3.00;;;;;36.65;30.76;101659.91;5079535;27;45555;-73
2021/08/11 09:58:41;;;;;;;;;2.75;2.75;;;;;36.91;30.33;101654.72;5081641;27;45750;-71
2021/08/11 10:01:27;;;;;;;;;3.00;3.00;;;;;36.96;28.38;101664.81;5075052;27;45428;-74
2021/08/11 10:04:06;;;;;;;;;1.00;1.00;;;;;36.85;30.98;101666.97;5072095;27;47218;-74
2021/08/11 10:06:35;;;;;;;;;2.50;2.50;;;;;37.01;31.18;101654.50;5067323;27;45734;-69
2021/08/11 10:09:19;;;;;;;;;1.25;1.25;;;;;37.05;30.73;101652.00;5066308;27;45646;-71
2021/08/11 10:11:48;;;;;;;;;1.25;1.25;;;;;36.87;31.53;101650.97;5063824;27;45503;-72
2021/08/11 10:14:15;;;;;;;;;4.50;2.00;;;;;36.61;30.66;101652.56;5074557;27;46168;-71
2021/08/11 10:16:42;;;;;;;;;2.75;1.50;;;;;36.17;31.23;101644.47;5072105;27;45529;-74
2021/08/11 10:19:09;;;;;;;;;4.00;4.00;;;;;36.16;31.23;101653.84;5073387;27;45440;-68
2021/08/11 10:21:49;;;;;;;;;0.00;0.00;;;;;36.51;32.35;101648.03;5068645;27;45415;-70
2021/08/11 10:24:15;;;;;;;;;3.00;3.00;;;;;37.13;31.22;101642.22;5051673;27;47230;-74
2021/08/11 10:26:42;;;;;;;;;3.50;3.25;;;;;37.63;28.20;101645.78;5072708;27;45777;-72
2021/08/11 10:29:08;;;;;;;;;2.25;2.25;;;;;37.66;28.77;101644.34;5074871;27;45427;-68
2021/08/11 10:31:34;;;;;;;;;2.75;2.75;;;;;37.88;29.11;101638.06;5067273;27;45440;-71
2021/08/11 10:34:02;;;;;;;;;2.25;2.25;;;;;38.23;29.14;101635.56;5079130;27;46829;-74
2021/08/11 10:36:31;;;;;;;;;2.75;2.75;;;;;38.06;24.69;101642.59;5075203;27;45570;-73
2021/08/11 10:39:00;;;;;;;;;3.00;3.00;;;;;37.53;28.38;101639.72;5053286;27;45403;-74
2021/08/11 10:41:30;;;;;;;;;4.00;4.00;;;;;37.06;29.75;101641.81;5056676;27;45596;-74
2021/08/11 10:43:57;;;;;;;;;3.25;2.75;;;;;37.06;30.43;101639.84;5079093;27;46372;-74
2021/08/11 10:46:49;;;;;;;;;3.00;3.00;;;;;37.42;30.07;101639.91;5052437;27;45445;-71
2021/08/11 10:49:19;;;;;;;;;3.25;3.25;;;;;37.40;29.15;101639.41;5047437;27;45696;-70
2021/08/11 10:51:48;;;;;;;;;3.75;3.00;;;;;36.73;30.53;101642.69;5066652;27;45516;-73
2021/08/11 10:54:14;;;;;;;;;1.75;1.75;;;;;36.07;30.49;101649.31;5067103;27;45535;-71
2021/08/11 10:56:48;;;;;;;;;4.25;4.25;;;;;35.41;32.08;101645.56;5072251;27;45587;-73
2021/08/11 10:59:44;;;;;;;;;5.75;4.00;;;;;34.70;31.77;101641.75;5076240;27;45520;-73
2021/08/11 11:02:40;;;;;;;;;5.00;5.00;;;;;34.03;33.25;101640.34;5067327;27;45512;-71
2021/08/11 11:05:20;;;;;;;;;3.25;3.25;;;;;33.50;33.33;101633.78;5072171;27;45445;-73
2021/08/11 11:08:08;;;;;;;;;3.75;3.00;;;;;33.55;34.35;101631.03;5068024;27;45538;-75
2021/08/11 11:10:34;;;;;;;;;2.50;2.50;;;;;33.89;33.12;101633.03;5066365;27;45597;-70
2021/08/11 11:13:00;;;;;;;;;4.25;4.25;;;;;34.21;31.23;101632.56;5084388;27;45508;-73
2021/08/11 11:15:40;;;;;;;;;4.00;3.00;;;;;34.63;32.93;101628.34;5067815;27;46142;-74
2021/08/11 11:18:22;;;;;;;;;4.00;3.00;;;;;34.92;32.37;101624.72;5047072;27;45704;-69
2021/08/11 11:20:58;;;;;;;;;4.50;3.00;;;;;35.46;30.25;101621.59;5066140;27;45572;-74
2021/08/11 11:23:38;;;;;;;;;5.00;2.50;;;;;35.77;31.05;101618.44;5078501;27;45432;-74
2021/08/11 11:26:05;;;;;;;;;6.00;4.00;;;;;36.33;31.11;101619.47;5073181;27;45495;-75
2021/08/11 11:28:55;;;;;;;;;5.00;5.00;;;;;37.06;30.39;101608.75;5071431;27;45774;-71